Time;durP1;ratioP1;P1;durP2;ratioP2;P2;SDS_P1;SDS_P2;PMS_P1;PMS_P2;Temp;Humidity;BMP_temperature;BMP_pressure;BME280_temperature;BME280_humidity;BME280_pressure;Samples;Min_cycle;Max_cycle;Signal;HPM_P1;HPM_P2
2022/07/16 00:02:06;;;;;;;1.15;0.50;;;16.30;83.00;;;;;;5035582;28;20051;-74
2022/07/16 00:04:32;;;;;;;1.55;0.50;;;16.30;83.70;;;;;;5050166;28;20028;-75
2022/07/16 00:06:59;;;;;;;1.35;0.40;;;16.40;83.30;;;;;;5066633;28;20051;-74
2022/07/16 00:09:25;;;;;;;0.70;0.30;;;16.40;83.30;;;;;;5021595;28;20054;-75
2022/07/16 00:11:51;;;;;;;2.05;0.60;;;16.50;83.30;;;;;;5067579;28;20036;-74
2022/07/16 00:14:19;;;;;;;1.52;0.40;;;16.50;83.40;;;;;;5052939;28;20032;-74
2022/07/16 00:16:45;;;;;;;1.42;0.30;;;16.50;83.40;;;;;;5071200;28;20040;-74
2022/07/16 00:19:21;;;;;;;2.30;0.40;;;16.60;83.30;;;;;;5053432;28;20039;-74
2022/07/16 00:21:51;;;;;;;0.65;0.38;;;16.70;83.40;;;;;;5020612;28;20043;-74
2022/07/16 00:24:17;;;;;;;2.03;0.50;;;16.70;83.60;;;;;;5072632;28;20032;-75
2022/07/16 00:26:45;;;;;;;1.98;0.40;;;16.80;83.40;;;;;;5054686;28;20034;-74
2022/07/16 00:29:11;;;;;;;2.83;0.40;;;16.90;83.40;;;;;;5069792;28;20020;-74
2022/07/16 00:31:38;;;;;;;0.88;0.40;;;17.00;83.10;;;;;;5066715;28;20035;-75
2022/07/16 00:34:08;;;;;;;2.70;0.52;;;17.00;83.00;;;;;;5018474;28;20042;-74
2022/07/16 00:36:36;;;;;;;0.80;0.30;;;17.20;83.10;;;;;;5048462;28;20047;-74
2022/07/16 00:39:04;;;;;;;0.75;0.30;;;17.20;83.00;;;;;;5048375;28;20514;-74
2022/07/16 00:41:31;;;;;;;1.10;0.30;;;17.30;83.00;;;;;;5065408;28;20505;-75
2022/07/16 00:44:01;;;;;;;1.15;0.30;;;17.30;82.90;;;;;;5066594;28;20028;-75
2022/07/16 00:46:28;;;;;;;1.02;0.40;;;17.30;83.00;;;;;;5033768;28;20047;-74
2022/07/16 00:48:55;;;;;;;0.98;0.40;;;17.40;83.30;;;;;;5067506;28;20023;-74
2022/07/16 00:51:23;;;;;;;1.45;0.50;;;17.40;83.20;;;;;;5065529;28;20523;-74
2022/07/16 00:53:51;;;;;;;0.88;0.43;;;17.50;83.40;;;;;;5051022;28;20067;-74
2022/07/16 00:56:18;;;;;;;2.45;0.40;;;17.50;83.40;;;;;;5050898;28;20050;-75
2022/07/16 00:58:46;;;;;;;1.00;0.40;;;17.50;83.40;;;;;;5068301;28;20032;-74
2022/07/16 01:01:13;;;;;;;1.65;0.40;;;17.50;83.60;;;;;;5033401;28;20082;-75
2022/07/16 01:03:41;;;;;;;0.85;0.30;;;17.60;83.70;;;;;;5068922;28;20032;-74
2022/07/16 01:06:08;;;;;;;1.88;0.50;;;17.60;83.70;;;;;;5066730;28;20028;-76
2022/07/16 01:08:37;;;;;;;0.75;0.30;;;17.60;83.90;;;;;;5071421;28;20359;-76
2022/07/16 01:11:06;;;;;;;1.05;0.40;;;17.60;83.90;;;;;;5018496;28;20044;-76
2022/07/16 01:13:34;;;;;;;0.90;0.30;;;17.50;84.00;;;;;;5054337;28;20034;-74
2022/07/16 01:16:01;;;;;;;1.70;0.40;;;17.50;84.10;;;;;;5069016;28;20053;-76
2022/07/16 01:18:28;;;;;;;1.30;0.50;;;17.40;84.20;;;;;;5039420;28;20051;-75
2022/07/16 01:20:54;;;;;;;1.95;1.00;;;17.40;84.40;;;;;;5070431;28;20514;-76
2022/07/16 01:23:22;;;;;;;1.38;0.55;;;17.30;84.70;;;;;;5071932;28;20046;-76
2022/07/16 01:25:49;;;;;;;2.80;1.38;;;17.30;84.90;;;;;;5039470;28;20435;-75
2022/07/16 01:28:16;;;;;;;3.30;1.35;;;17.30;85.20;;;;;;5038511;28;20036;-76
2022/07/16 01:30:42;;;;;;;1.70;0.70;;;17.30;85.40;;;;;;5036179;28;20047;-76
2022/07/16 01:33:21;;;;;;;2.30;0.50;;;17.30;85.60;;;;;;5054575;28;20059;-77
2022/07/16 01:35:51;;;;;;;2.08;0.52;;;17.30;85.80;;;;;;5071101;28;20040;-76
2022/07/16 01:38:18;;;;;;;1.00;0.60;;;17.30;85.70;;;;;;5070983;28;20489;-77
2022/07/16 01:40:44;;;;;;;2.10;0.55;;;17.40;85.90;;;;;;5054307;28;20058;-77
2022/07/16 01:43:19;;;;;;;1.30;0.45;;;17.40;86.30;;;;;;5040444;28;20050;-77
2022/07/16 01:45:46;;;;;;;1.17;0.50;;;17.50;86.50;;;;;;5056120;28;20028;-81
2022/07/16 01:48:14;;;;;;;3.30;0.50;;;17.50;86.60;;;;;;5057079;28;20495;-79
2022/07/16 01:50:42;;;;;;;2.13;0.50;;;17.50;86.70;;;;;;5070540;28;20039;-79
2022/07/16 01:53:10;;;;;;;2.45;0.60;;;17.50;86.80;;;;;;5058183;28;20032;-79
2022/07/16 01:55:38;;;;;;;1.05;0.50;;;17.60;87.00;;;;;;5054918;28;20043;-81
2022/07/16 01:58:05;;;;;;;1.85;0.50;;;17.60;87.00;;;;;;5023489;28;20040;-83
2022/07/16 02:00:33;;;;;;;1.67;0.60;;;17.60;87.10;;;;;;5055463;28;20043;-81
2022/07/16 02:03:00;;;;;;;2.00;0.50;;;17.70;87.30;;;;;;5054757;28;20028;-80
2022/07/16 02:05:26;;;;;;;1.50;0.60;;;17.70;87.30;;;;;;5054801;28;20046;-82
2022/07/16 02:07:53;;;;;;;1.60;0.40;;;17.70;87.40;;;;;;5055042;28;20042;-83
2022/07/16 02:10:20;;;;;;;1.70;0.50;;;17.70;87.50;;;;;;5036789;28;20058;-84
2022/07/16 02:12:47;;;;;;;4.00;0.77;;;17.80;87.60;;;;;;5038632;28;20067;-82
2022/07/16 02:15:13;;;;;;;2.45;0.65;;;17.80;87.80;;;;;;5036056;28;20391;-80
2022/07/16 02:17:41;;;;;;;3.70;0.75;;;17.80;88.00;;;;;;5052965;28;20044;-81
2022/07/16 02:20:09;;;;;;;1.48;0.40;;;17.80;88.10;;;;;;5037670;28;20055;-79
2022/07/16 02:22:35;;;;;;;3.30;0.70;;;17.80;88.10;;;;;;5038150;28;20050;-81
2022/07/16 02:25:06;;;;;;;1.23;0.50;;;17.80;88.30;;;;;;5038937;28;20040;-79
2022/07/16 02:27:32;;;;;;;1.88;0.50;;;17.80;88.40;;;;;;5072701;28;20036;-80
2022/07/16 02:29:59;;;;;;;3.72;0.50;;;17.80;88.40;;;;;;5004268;28;20355;-76
2022/07/16 02:32:27;;;;;;;1.15;0.40;;;17.80;88.60;;;;;;5056246;28;20139;-75
2022/07/16 02:34:54;;;;;;;1.50;0.47;;;17.80;88.70;;;;;;5039568;28;20047;-75
2022/07/16 02:37:20;;;;;;;2.47;0.40;;;17.90;89.10;;;;;;5055732;28;20051;-75
2022/07/16 02:39:46;;;;;;;1.52;0.50;;;17.80;89.20;;;;;;5072259;28;20031;-76
2022/07/16 02:42:13;;;;;;;2.67;0.50;;;17.90;89.40;;;;;;5054197;28;20052;-76
2022/07/16 02:44:39;;;;;;;1.38;0.68;;;17.90;89.60;;;;;;5021793;28;20036;-75
2022/07/16 02:47:06;;;;;;;2.25;0.60;;;17.80;89.80;;;;;;5064585;28;20042;-74
2022/07/16 02:49:32;;;;;;;2.00;0.52;;;17.80;90.00;;;;;;5070746;28;20028;-75
2022/07/16 02:51:58;;;;;;;2.13;0.68;;;17.80;90.10;;;;;;5052907;28;20142;-76
2022/07/16 02:54:25;;;;;;;3.10;1.02;;;17.80;90.20;;;;;;5038175;28;20490;-76
2022/07/16 02:56:51;;;;;;;1.02;0.50;;;17.80;90.40;;;;;;5038018;28;20035;-76
2022/07/16 02:59:18;;;;;;;1.55;0.70;;;17.70;90.40;;;;;;5057246;28;21010;-75
2022/07/16 03:01:44;;;;;;;2.85;0.68;;;17.60;90.50;;;;;;5035676;28;20051;-75
2022/07/16 03:04:11;;;;;;;1.50;0.60;;;17.60;90.80;;;;;;5039442;28;20035;-75
2022/07/16 03:06:37;;;;;;;1.88;0.60;;;17.60;90.70;;;;;;5037739;28;20036;-75
2022/07/16 03:09:03;;;;;;;2.05;0.63;;;17.60;90.90;;;;;;5072925;28;20474;-75
2022/07/16 03:11:30;;;;;;;2.42;0.60;;;17.50;91.00;;;;;;5037205;28;20039;-75
2022/07/16 03:13:56;;;;;;;1.48;0.80;;;17.50;91.20;;;;;;5023351;28;20040;-75
2022/07/16 03:16:22;;;;;;;1.63;0.60;;;17.40;91.40;;;;;;5054169;28;20047;-75
2022/07/16 03:18:49;;;;;;;1.50;0.70;;;17.40;91.40;;;;;;5073158;28;20043;-74
2022/07/16 03:21:15;;;;;;;3.53;1.92;;;17.40;91.50;;;;;;5052276;28;20059;-75
2022/07/16 03:23:41;;;;;;;5.22;1.90;;;17.30;91.60;;;;;;5054232;28;20031;-75
2022/07/16 03:26:08;;;;;;;2.75;0.93;;;17.30;91.90;;;;;;5053558;28;20374;-76
2022/07/16 03:28:36;;;;;;;2.90;0.70;;;17.30;92.10;;;;;;5037168;28;20489;-76
2022/07/16 03:31:02;;;;;;;2.53;0.90;;;17.30;92.10;;;;;;5033405;28;20047;-75
2022/07/16 03:33:29;;;;;;;2.42;0.82;;;17.30;92.30;;;;;;5036024;28;20486;-75
2022/07/16 03:35:55;;;;;;;1.63;0.70;;;17.30;92.40;;;;;;5068264;28;20067;-76
2022/07/16 03:41:06;;;;;;;2.25;1.17;;;17.30;92.70;;;;;;5049946;28;20064;-75
2022/07/16 03:43:33;;;;;;;2.40;0.88;;;17.30;92.80;;;;;;5053424;28;20510;-76
2022/07/16 03:45:59;;;;;;;2.00;0.80;;;17.30;93.10;;;;;;5035206;28;20035;-75
2022/07/16 03:48:25;;;;;;;4.32;1.30;;;17.30;93.20;;;;;;5053738;28;20089;-74
2022/07/16 03:50:52;;;;;;;2.75;1.23;;;17.30;93.30;;;;;;5050116;28;20039;-75
2022/07/16 03:53:18;;;;;;;2.25;0.82;;;17.20;93.50;;;;;;5054313;28;20034;-75
2022/07/16 03:55:45;;;;;;;3.08;1.10;;;17.20;93.60;;;;;;5053025;28;20395;-75
2022/07/16 03:58:11;;;;;;;4.18;0.80;;;17.20;93.90;;;;;;5070746;28;20506;-75
2022/07/16 04:00:37;;;;;;;2.47;0.98;;;17.20;94.00;;;;;;5070282;28;20368;-75
2022/07/16 04:03:04;;;;;;;2.25;0.80;;;17.20;94.10;;;;;;5053739;28;20047;-75
2022/07/16 04:05:30;;;;;;;1.13;0.60;;;17.20;94.20;;;;;;5055531;28;20402;-75
2022/07/16 04:07:57;;;;;;;3.78;1.02;;;17.10;94.20;;;;;;5070694;28;20028;-75
2022/07/16 04:10:23;;;;;;;2.78;1.23;;;17.20;94.60;;;;;;5070113;28;20027;-75
2022/07/16 04:12:49;;;;;;;3.25;0.98;;;17.20;94.80;;;;;;5038216;28;20054;-75
2022/07/16 04:15:16;;;;;;;2.97;1.13;;;17.20;94.90;;;;;;5072030;28;20509;-76
2022/07/16 04:17:42;;;;;;;1.83;0.80;;;17.20;95.00;;;;;;5022021;28;20086;-75
2022/07/16 04:20:09;;;;;;;2.60;1.00;;;17.30;95.20;;;;;;5067775;28;20056;-75
2022/07/16 04:22:35;;;;;;;2.38;0.90;;;17.30;95.30;;;;;;5038475;28;20604;-75
2022/07/16 04:25:02;;;;;;;3.53;1.10;;;17.30;95.40;;;;;;5054627;28;20044;-76
2022/07/16 04:27:28;;;;;;;3.47;1.10;;;17.10;96.10;;;;;;5052702;28;20055;-76
2022/07/16 04:29:55;;;;;;;3.33;1.17;;;16.90;96.70;;;;;;5036663;28;20031;-76
2022/07/16 04:32:21;;;;;;;3.05;1.00;;;16.60;97.60;;;;;;5055184;28;20032;-76
2022/07/16 04:34:47;;;;;;;4.53;1.25;;;16.40;98.40;;;;;;5055630;28;20040;-75
2022/07/16 04:37:14;;;;;;;3.55;1.10;;;16.20;99.10;;;;;;5070572;28;20502;-75
2022/07/16 04:39:40;;;;;;;2.47;1.17;;;16.20;99.80;;;;;;5072176;28;20044;-76
2022/07/16 04:42:06;;;;;;;5.30;1.40;;;16.10;99.90;;;;;;5071032;28;20047;-75
2022/07/16 04:44:33;;;;;;;2.90;1.20;;;16.10;99.90;;;;;;5076842;28;20042;-74
2022/07/16 04:46:59;;;;;;;3.72;1.20;;;16.20;99.90;;;;;;5072410;28;20031;-74
2022/07/16 04:49:26;;;;;;;4.63;1.50;;;16.20;99.90;;;;;;5040209;28;20497;-76
2022/07/16 04:51:52;;;;;;;3.40;1.30;;;16.20;99.90;;;;;;5054145;28;20676;-77
2022/07/16 04:54:18;;;;;;;2.10;1.10;;;16.30;99.90;;;;;;5075854;28;20406;-77
2022/07/16 04:56:45;;;;;;;2.95;1.52;;;16.30;99.90;;;;;;5022941;28;20044;-75
2022/07/16 04:59:11;;;;;;;3.10;1.45;;;16.20;99.90;;;;;;5053626;28;20046;-74
2022/07/16 05:01:37;;;;;;;3.85;1.38;;;16.20;99.90;;;;;;5052122;28;20031;-75
2022/07/16 05:04:04;;;;;;;2.90;1.48;;;16.20;99.90;;;;;;5049980;28;20040;-75
2022/07/16 05:06:30;;;;;;;3.22;1.63;;;16.30;99.90;;;;;;5039041;28;20036;-75
2022/07/16 05:08:57;;;;;;;4.43;2.03;;;16.40;99.90;;;;;;5070855;28;20036;-75
2022/07/16 05:11:23;;;;;;;3.53;1.60;;;16.40;99.90;;;;;;5069022;28;20054;-75
2022/07/16 05:13:53;;;;;;;2.72;1.20;;;16.40;99.90;;;;;;5071433;28;20027;-74
2022/07/16 05:16:20;;;;;;;4.93;2.35;;;16.40;99.90;;;;;;5053110;28;20044;-74
2022/07/16 05:18:47;;;;;;;4.18;1.85;;;16.50;99.90;;;;;;5039492;28;21816;-75
2022/07/16 05:21:13;;;;;;;4.28;1.58;;;16.70;99.90;;;;;;5052943;28;20082;-75
2022/07/16 05:23:40;;;;;;;4.43;2.10;;;16.80;99.90;;;;;;5073726;28;20039;-75
2022/07/16 05:26:07;;;;;;;3.00;2.00;;;17.00;99.90;;;;;;5076145;28;20067;-75
2022/07/16 05:28:33;;;;;;;2.33;1.52;;;17.10;99.90;;;;;;5058059;28;20036;-75
2022/07/16 05:30:59;;;;;;;2.20;1.50;;;17.10;99.90;;;;;;5056207;28;20036;-75
2022/07/16 05:33:26;;;;;;;3.22;2.08;;;17.20;99.90;;;;;;5075069;28;20039;-78
2022/07/16 05:35:52;;;;;;;5.60;2.50;;;17.30;99.90;;;;;;5022482;28;20035;-75
2022/07/16 05:38:19;;;;;;;4.60;2.70;;;17.40;99.90;;;;;;5041117;28;20046;-74
2022/07/16 05:40:45;;;;;;;4.93;2.60;;;17.40;99.90;;;;;;5071914;28;20042;-74
2022/07/16 05:43:12;;;;;;;5.72;3.50;;;17.50;99.90;;;;;;5058653;28;20047;-74
2022/07/16 05:45:38;;;;;;;9.35;5.60;;;17.50;99.90;;;;;;5071669;28;20044;-74
2022/07/16 05:48:05;;;;;;;3.50;2.88;;;17.70;99.90;;;;;;5057072;28;20044;-74
2022/07/16 05:50:31;;;;;;;4.95;3.10;;;17.80;99.90;;;;;;5071971;28;20423;-75
2022/07/16 05:52:57;;;;;;;4.50;2.80;;;17.90;99.90;;;;;;5074959;28;21148;-74
2022/07/16 05:55:24;;;;;;;5.75;3.75;;;18.00;99.90;;;;;;5058327;28;20050;-74
2022/07/16 05:57:51;;;;;;;4.07;2.47;;;18.10;99.90;;;;;;5057458;28;20035;-75
2022/07/16 06:00:18;;;;;;;4.60;1.80;;;18.20;99.90;;;;;;5072690;28;20055;-75
2022/07/16 06:02:44;;;;;;;3.78;1.63;;;18.30;99.90;;;;;;5007177;28;20044;-75
2022/07/16 06:05:11;;;;;;;2.90;1.20;;;18.40;99.90;;;;;;5075969;28;20479;-76
2022/07/16 06:07:38;;;;;;;2.70;1.30;;;18.50;99.90;;;;;;5074087;28;21211;-75
2022/07/16 06:10:05;;;;;;;3.00;1.30;;;18.60;99.90;;;;;;5072339;28;20115;-75
2022/07/16 06:12:31;;;;;;;3.17;1.15;;;18.70;99.90;;;;;;5040528;28;20044;-76
2022/07/16 06:14:58;;;;;;;2.35;0.77;;;18.80;99.90;;;;;;5073360;28;20024;-75
2022/07/16 06:17:25;;;;;;;2.45;0.90;;;19.00;99.90;;;;;;5053004;28;20062;-76
2022/07/16 06:19:51;;;;;;;2.90;1.17;;;19.20;99.90;;;;;;5052206;28;20403;-75
2022/07/16 06:22:17;;;;;;;2.40;0.70;;;19.50;99.90;;;;;;5038774;28;20048;-75
2022/07/16 06:24:44;;;;;;;2.10;0.90;;;19.90;99.90;;;;;;5073069;28;20031;-75
2022/07/16 06:27:10;;;;;;;2.63;0.70;;;20.20;99.90;;;;;;5072084;28;20952;-75
2022/07/16 06:29:38;;;;;;;1.50;0.70;;;20.50;99.90;;;;;;5075021;28;20036;-75
2022/07/16 06:32:05;;;;;;;1.30;0.60;;;20.60;99.90;;;;;;5072611;28;20051;-75
2022/07/16 06:34:31;;;;;;;3.17;0.70;;;20.60;99.90;;;;;;5073012;28;20042;-75
2022/07/16 06:36:58;;;;;;;1.30;0.45;;;20.60;99.90;;;;;;5073884;28;20043;-75
2022/07/16 06:39:24;;;;;;;1.90;0.85;;;20.50;99.90;;;;;;5055417;28;20501;-75
2022/07/16 06:41:50;;;;;;;3.08;0.50;;;20.50;99.90;;;;;;5052329;28;21329;-75
2022/07/16 06:44:17;;;;;;;1.70;0.43;;;20.50;99.90;;;;;;5038552;28;20058;-76
2022/07/16 06:46:43;;;;;;;1.45;0.40;;;20.60;99.90;;;;;;5037192;28;20046;-75
2022/07/16 06:49:09;;;;;;;4.50;0.50;;;20.70;99.90;;;;;;5038112;28;20070;-75
2022/07/16 06:51:36;;;;;;;2.05;0.43;;;20.80;99.90;;;;;;5052730;28;20027;-76
2022/07/16 06:54:02;;;;;;;1.85;0.50;;;20.80;99.90;;;;;;5073813;28;20032;-75
2022/07/16 06:56:29;;;;;;;2.03;0.40;;;20.80;99.90;;;;;;5038488;28;20036;-76
2022/07/16 06:58:55;;;;;;;2.33;0.40;;;20.80;99.90;;;;;;5037741;28;20048;-76
2022/07/16 07:01:21;;;;;;;2.22;0.40;;;20.60;99.90;;;;;;5054596;28;20035;-75
2022/07/16 07:03:48;;;;;;;2.45;0.40;;;20.70;99.90;;;;;;5056501;28;20040;-76
2022/07/16 07:06:14;;;;;;;2.05;0.38;;;20.90;99.90;;;;;;5037953;28;20483;-75
2022/07/16 07:08:41;;;;;;;3.17;0.40;;;21.00;99.90;;;;;;5057565;28;20028;-75
2022/07/16 07:11:08;;;;;;;1.90;0.40;;;21.10;99.80;;;;;;5054394;28;20050;-76
2022/07/16 07:13:34;;;;;;;1.58;0.40;;;21.10;98.70;;;;;;5040145;28;20035;-75
2022/07/16 07:16:01;;;;;;;1.73;0.30;;;21.10;97.80;;;;;;5054665;28;20040;-76
2022/07/16 07:18:27;;;;;;;1.60;0.40;;;21.00;97.50;;;;;;5055430;28;20032;-80
2022/07/16 07:20:53;;;;;;;3.47;0.50;;;21.00;97.20;;;;;;5068690;28;20091;-80
2022/07/16 07:23:20;;;;;;;1.08;0.40;;;21.10;96.80;;;;;;5055928;28;20040;-80
2022/07/16 07:25:46;;;;;;;1.85;0.35;;;21.10;96.10;;;;;;5037646;28;20035;-80
2022/07/16 07:28:13;;;;;;;2.40;0.57;;;21.10;95.70;;;;;;5056868;28;20051;-76
2022/07/16 07:30:40;;;;;;;2.78;0.50;;;21.20;95.60;;;;;;5069921;28;21701;-75
2022/07/16 07:33:07;;;;;;;3.67;0.40;;;21.20;95.40;;;;;;5055193;28;20039;-75
2022/07/16 07:35:33;;;;;;;2.67;0.40;;;21.30;95.20;;;;;;5067127;28;20390;-75
2022/07/16 07:38:01;;;;;;;1.60;0.30;;;21.40;95.00;;;;;;5052908;28;20044;-75
2022/07/16 07:40:28;;;;;;;2.13;0.50;;;21.50;94.90;;;;;;5036605;28;20046;-75
2022/07/16 07:42:54;;;;;;;1.52;0.30;;;21.50;94.50;;;;;;5072697;28;20040;-76
2022/07/16 07:45:21;;;;;;;2.22;0.30;;;21.50;94.10;;;;;;5040136;28;20490;-75
2022/07/16 07:47:50;;;;;;;1.95;0.47;;;21.60;93.50;;;;;;5055033;28;21084;-75
2022/07/16 07:50:16;;;;;;;2.63;0.45;;;21.60;93.30;;;;;;5035596;28;20490;-75
2022/07/16 07:52:43;;;;;;;3.20;0.38;;;21.80;92.70;;;;;;5037106;28;20051;-75
2022/07/16 07:55:09;;;;;;;1.63;0.38;;;22.00;92.30;;;;;;5053824;28;20036;-75
2022/07/16 07:57:36;;;;;;;1.17;0.40;;;22.10;91.50;;;;;;5071489;28;20046;-75
2022/07/16 08:00:05;;;;;;;1.67;0.40;;;22.20;91.50;;;;;;5052960;28;20047;-75
2022/07/16 08:02:43;;;;;;;1.67;0.40;;;22.30;90.70;;;;;;5056383;28;20044;-75
2022/07/16 08:05:11;;;;;;;2.50;0.30;;;22.50;90.70;;;;;;5038287;28;20544;-75
2022/07/16 08:07:38;;;;;;;1.58;0.40;;;22.70;90.20;;;;;;5021680;28;20051;-76
2022/07/16 08:10:05;;;;;;;1.45;0.40;;;22.80;89.90;;;;;;5052186;28;20044;-75
2022/07/16 08:12:32;;;;;;;1.50;0.40;;;22.90;89.00;;;;;;5073029;28;20097;-76
2022/07/16 08:14:58;;;;;;;1.85;0.40;;;23.00;88.00;;;;;;5038916;28;20372;-76
2022/07/16 08:17:24;;;;;;;1.30;0.35;;;23.20;86.50;;;;;;5037667;28;20186;-75
2022/07/16 08:19:51;;;;;;;1.25;0.40;;;23.40;86.10;;;;;;5051986;28;20063;-75
2022/07/16 08:22:17;;;;;;;1.42;0.40;;;23.60;86.30;;;;;;5038444;28;20046;-75
2022/07/16 08:27:29;;;;;;;1.70;0.35;;;23.60;84.20;;;;;;5039195;28;20042;-75
2022/07/16 08:29:55;;;;;;;1.27;0.50;;;23.30;84.60;;;;;;5072855;28;20497;-75
2022/07/16 08:32:21;;;;;;;3.45;0.50;;;23.20;84.10;;;;;;5070131;28;20055;-75
2022/07/16 08:34:48;;;;;;;5.18;0.60;;;23.20;84.60;;;;;;5053151;28;20087;-75
2022/07/16 08:37:14;;;;;;;1.83;0.40;;;23.20;84.60;;;;;;5069625;28;20494;-75
2022/07/16 08:39:44;;;;;;;2.78;0.40;;;23.20;84.60;;;;;;5055652;28;20035;-75
2022/07/16 08:42:11;;;;;;;1.38;0.35;;;23.00;84.80;;;;;;5054435;28;20039;-75
2022/07/16 08:44:39;;;;;;;1.17;0.40;;;23.00;85.80;;;;;;5053920;28;20039;-80
2022/07/16 08:47:10;;;;;;;1.75;0.30;;;22.90;84.80;;;;;;5068266;28;20046;-79
2022/07/16 08:49:38;;;;;;;3.70;0.43;;;22.90;83.70;;;;;;5052942;28;20038;-79
2022/07/16 08:52:07;;;;;;;1.80;0.50;;;23.00;83.40;;;;;;5066178;28;20493;-78
2022/07/16 08:54:35;;;;;;;1.75;0.30;;;22.90;82.80;;;;;;5052835;28;20047;-81
2022/07/16 08:57:02;;;;;;;2.45;0.40;;;22.80;83.00;;;;;;5067484;28;20043;-80
2022/07/16 08:59:29;;;;;;;1.55;0.30;;;22.70;81.10;;;;;;5051919;28;20044;-82
2022/07/16 09:01:55;;;;;;;1.92;0.50;;;22.60;80.90;;;;;;5053263;28;20436;-81
2022/07/16 09:04:22;;;;;;;1.30;0.30;;;22.50;80.80;;;;;;5069536;28;20483;-80
2022/07/16 09:06:49;;;;;;;0.80;0.35;;;22.30;80.50;;;;;;5050544;28;20460;-85
2022/07/16 09:09:15;;;;;;;1.25;0.30;;;22.40;81.00;;;;;;5037025;28;20023;-78
2022/07/16 09:11:43;;;;;;;2.20;0.80;;;22.40;80.80;;;;;;5052766;28;20031;-78
2022/07/16 09:14:18;;;;;;;1.52;0.60;;;22.50;80.60;;;;;;5070218;28;20042;-75
2022/07/16 09:16:53;;;;;;;1.00;0.40;;;22.70;79.90;;;;;;5051491;28;20054;-76
2022/07/16 09:19:22;;;;;;;2.08;0.40;;;22.80;78.90;;;;;;5071656;28;20039;-79
2022/07/16 09:22:08;;;;;;;2.05;0.52;;;22.70;78.00;;;;;;5067615;28;20058;-76
2022/07/16 09:24:42;;;;;;;2.08;0.30;;;22.50;77.70;;;;;;5070998;28;20883;-75
2022/07/16 09:27:19;;;;;;;3.53;1.02;;;22.50;77.40;;;;;;5070138;28;20097;-76
2022/07/16 09:29:46;;;;;;;0.80;0.30;;;22.70;76.90;;;;;;5040949;28;20024;-76
2022/07/16 09:32:24;;;;;;;2.90;0.40;;;22.80;76.70;;;;;;5075493;28;20043;-76
2022/07/16 09:35:13;;;;;;;1.85;0.40;;;23.10;76.00;;;;;;5074057;28;20529;-77
2022/07/16 09:38:00;;;;;;;1.30;0.30;;;23.50;74.80;;;;;;5071576;28;20035;-77
2022/07/16 09:40:38;;;;;;;1.88;0.40;;;23.60;73.20;;;;;;5054006;28;20039;-77
2022/07/16 09:43:11;;;;;;;1.73;0.50;;;23.80;72.90;;;;;;5072392;28;20047;-77
2022/07/16 09:45:41;;;;;;;1.92;0.40;;;24.00;72.50;;;;;;5037330;28;20034;-77
2022/07/16 09:48:31;;;;;;;2.17;0.45;;;24.30;72.10;;;;;;5038680;28;20035;-77
2022/07/16 09:51:22;;;;;;;0.85;0.40;;;24.70;70.40;;;;;;5055292;28;20036;-77
2022/07/16 09:53:50;;;;;;;1.60;0.40;;;24.90;69.40;;;;;;5071991;28;20351;-76
2022/07/16 09:56:25;;;;;;;2.75;0.30;;;25.00;69.00;;;;;;5052691;28;20046;-77
2022/07/16 09:58:54;;;;;;;2.05;0.40;;;25.10;68.50;;;;;;5072018;28;20036;-77
2022/07/16 10:01:21;;;;;;;1.35;0.40;;;25.10;68.40;;;;;;5071282;28;20490;-77
2022/07/16 10:03:49;;;;;;;1.98;0.40;;;25.10;68.40;;;;;;5053853;28;20035;-77
2022/07/16 10:06:19;;;;;;;8.07;5.90;;;25.00;67.80;;;;;;5067976;28;20036;-77
2022/07/16 10:08:46;;;;;;;2.30;0.77;;;24.80;68.10;;;;;;5053076;28;20035;-77
2022/07/16 10:11:13;;;;;;;4.28;0.40;;;24.80;66.90;;;;;;5053632;28;20146;-77
2022/07/16 10:13:44;;;;;;;1.80;0.30;;;24.70;66.80;;;;;;5053896;28;20042;-76
2022/07/16 10:16:11;;;;;;;2.70;0.75;;;24.80;67.00;;;;;;5052714;28;20483;-77
2022/07/16 10:18:44;;;;;;;1.85;0.30;;;25.20;66.10;;;;;;5039084;28;20039;-76
2022/07/16 10:21:21;;;;;;;1.88;0.40;;;25.30;65.40;;;;;;5068992;28;20058;-77
2022/07/16 10:24:10;;;;;;;2.10;0.30;;;25.10;65.90;;;;;;5039037;28;20044;-77
2022/07/16 10:26:40;;;;;;;2.15;0.30;;;24.70;67.00;;;;;;5071959;28;21300;-77
2022/07/16 10:29:06;;;;;;;2.38;0.57;;;24.70;67.40;;;;;;5054382;28;20035;-77
2022/07/16 10:31:39;;;;;;;1.13;0.30;;;25.00;67.40;;;;;;5054116;28;20041;-77
2022/07/16 10:34:14;;;;;;;3.47;0.40;;;25.30;66.10;;;;;;5071894;28;20031;-76
2022/07/16 10:36:52;;;;;;;2.22;0.38;;;25.40;64.40;;;;;;5069134;28;20035;-78
2022/07/16 10:39:21;;;;;;;4.78;0.30;;;25.50;64.50;;;;;;5068825;28;20372;-79
2022/07/16 10:41:51;;;;;;;2.92;0.50;;;25.70;63.90;;;;;;5052290;28;20495;-79
2022/07/16 10:44:19;;;;;;;1.95;0.30;;;25.90;63.00;;;;;;5050977;28;21735;-78
2022/07/16 10:46:57;;;;;;;3.50;0.30;;;26.10;62.80;;;;;;5052399;28;20416;-78
2022/07/16 10:49:25;;;;;;;2.25;0.30;;;26.30;62.50;;;;;;5069236;28;20447;-79
2022/07/16 10:52:16;;;;;;;2.85;0.70;;;26.60;61.70;;;;;;5053914;28;21085;-78
2022/07/16 10:55:01;;;;;;;2.75;0.57;;;26.80;61.10;;;;;;5052237;28;20061;-77
2022/07/16 10:57:37;;;;;;;3.10;0.70;;;26.90;60.60;;;;;;5069332;28;20050;-77
2022/07/16 11:00:06;;;;;;;3.17;0.60;;;27.00;58.40;;;;;;5070897;28;20032;-79
2022/07/16 11:02:40;;;;;;;3.80;0.50;;;27.20;59.40;;;;;;5055226;28;20414;-78
2022/07/16 11:05:08;;;;;;;2.90;0.90;;;27.60;59.20;;;;;;5052754;28;20043;-77
2022/07/16 11:07:35;;;;;;;2.30;0.40;;;27.60;57.80;;;;;;5033779;28;20039;-79
2022/07/16 11:10:04;;;;;;;1.77;0.40;;;27.80;57.60;;;;;;5053452;28;20035;-80
2022/07/16 11:12:32;;;;;;;3.78;0.50;;;27.90;56.80;;;;;;5071682;28;20098;-79
2022/07/16 11:15:00;;;;;;;2.35;0.43;;;27.80;57.20;;;;;;5037863;28;20036;-78
2022/07/16 11:17:29;;;;;;;1.55;0.40;;;27.40;57.70;;;;;;5037025;28;21485;-77
2022/07/16 11:20:00;;;;;;;1.52;0.40;;;27.50;58.20;;;;;;5069832;28;20036;-79
2022/07/16 11:22:29;;;;;;;2.78;0.30;;;27.80;57.50;;;;;;5053639;28;20032;-78
2022/07/16 11:25:02;;;;;;;1.75;0.30;;;28.20;57.10;;;;;;5068070;28;20032;-77
2022/07/16 11:27:30;;;;;;;1.70;0.32;;;28.50;55.60;;;;;;5071904;28;20101;-77
2022/07/16 11:29:58;;;;;;;2.47;0.40;;;28.80;54.60;;;;;;5072591;28;20459;-76
2022/07/16 11:32:25;;;;;;;2.53;0.45;;;28.80;53.90;;;;;;5055671;28;20039;-78
2022/07/16 11:34:52;;;;;;;3.47;0.57;;;28.80;54.30;;;;;;5072459;28;20036;-78
2022/07/16 11:37:18;;;;;;;2.33;0.40;;;28.80;54.30;;;;;;5070703;28;20042;-77
2022/07/16 11:39:45;;;;;;;2.53;0.50;;;28.70;54.70;;;;;;5072829;28;20486;-80
2022/07/16 11:42:12;;;;;;;2.17;0.32;;;28.90;55.10;;;;;;5055041;28;20360;-78
2022/07/16 11:44:40;;;;;;;2.47;0.50;;;29.20;54.40;;;;;;5053137;28;20035;-79
2022/07/16 11:47:10;;;;;;;1.77;0.32;;;29.40;53.70;;;;;;5068919;28;20115;-79
2022/07/16 11:49:44;;;;;;;5.43;2.05;;;29.50;53.20;;;;;;5035962;28;20043;-78
2022/07/16 11:52:26;;;;;;;3.35;0.50;;;29.40;52.80;;;;;;5052975;28;20023;-82
2022/07/16 11:54:57;;;;;;;2.17;0.43;;;29.00;52.30;;;;;;5036954;28;20031;-80
2022/07/16 11:57:24;;;;;;;2.00;0.40;;;28.80;52.60;;;;;;5033487;28;20040;-77
2022/07/16 11:59:53;;;;;;;4.00;0.50;;;29.10;52.40;;;;;;5018377;28;20038;-78
2022/07/16 12:02:22;;;;;;;1.40;0.30;;;29.10;52.00;;;;;;5054330;28;20062;-79
2022/07/16 12:04:51;;;;;;;1.88;0.30;;;28.90;52.20;;;;;;5050842;28;20032;-78
2022/07/16 12:07:26;;;;;;;2.08;0.40;;;29.30;51.90;;;;;;5070130;28;20028;-77
2022/07/16 12:09:54;;;;;;;2.42;0.57;;;29.80;50.80;;;;;;5036417;28;20505;-80
2022/07/16 12:12:29;;;;;;;1.63;0.40;;;30.00;50.70;;;;;;5034993;28;20571;-80
2022/07/16 12:14:59;;;;;;;3.15;0.47;;;30.40;50.20;;;;;;5036268;28;20036;-78
2022/07/16 12:17:28;;;;;;;2.72;0.35;;;31.10;49.40;;;;;;5054166;28;20027;-82
2022/07/16 12:20:08;;;;;;;3.17;0.40;;;31.60;48.80;;;;;;5035103;28;20054;-81
2022/07/16 12:22:48;;;;;;;1.33;0.30;;;31.90;47.70;;;;;;5037225;28;20054;-78
2022/07/16 12:25:30;;;;;;;3.30;0.50;;;32.20;47.10;;;;;;5071688;28;20040;-77
2022/07/16 12:27:58;;;;;;;1.92;0.30;;;32.60;46.40;;;;;;5070544;28;20039;-79
2022/07/16 12:30:51;;;;;;;1.02;0.32;;;33.10;45.80;;;;;;5071151;28;20051;-77
2022/07/16 12:33:21;;;;;;;2.25;0.40;;;33.30;45.00;;;;;;5057702;28;20039;-75
2022/07/16 12:35:58;;;;;;;1.13;0.30;;;33.50;44.90;;;;;;5069596;28;20036;-76
2022/07/16 12:38:38;;;;;;;1.42;0.47;;;33.90;44.60;;;;;;5070474;28;20035;-76
2022/07/16 12:41:11;;;;;;;3.13;0.45;;;34.40;43.50;;;;;;5070462;28;20052;-79
2022/07/16 12:43:40;;;;;;;2.10;0.30;;;34.40;42.50;;;;;;5069028;28;20475;-76
2022/07/16 12:46:08;;;;;;;1.73;0.30;;;34.40;42.40;;;;;;5050480;28;20483;-77
2022/07/16 12:48:54;;;;;;;1.30;0.20;;;33.90;42.60;;;;;;5055524;28;20398;-76
2022/07/16 12:51:22;;;;;;;1.42;0.40;;;34.20;42.50;;;;;;5071940;28;20046;-75
2022/07/16 12:53:49;;;;;;;3.38;2.00;;;34.50;41.50;;;;;;5040081;28;20043;-75
2022/07/16 12:59:03;;;;;;;1.58;0.70;;;34.90;40.40;;;;;;5071724;28;20024;-76
2022/07/16 13:01:30;;;;;;;2.63;1.27;;;34.20;40.70;;;;;;5055582;28;20020;-75
2022/07/16 13:03:57;;;;;;;1.80;0.68;;;33.20;41.80;;;;;;5075320;28;20540;-75